Terminal Aerodrome Forecast
Issued by NWS

Home | Current Version | Previous Version | Text Only | Print | Product List | Glossary On
Versions: 1 2 3 4 5 6 7 8 9 10 11 12 13 14 15 16 17 18
000
FTAK31 PAJN 231700
TAFAGY
TAF
PAGY 231740Z 2318/2418 21012KT P6SM VCSH BKN050 OVC080
      TEMPO 2318/2321 21015G25KT 6SM -SHRA BKN040
     FM232100 VRB06KT 6SM -SHRA SCT035 OVC060
     FM240100 VRB06KT 4SM -SHRA BKN025 OVC040
     FM240600 04004KT P6SM VCSH OVC050
     FM241100 04012KT P6SM SCT040 BKN060 OVC080
      AMD LTD TO CLD VIS AND WIND=

USA.gov is the U.S. government's official web portal to all federal, state and local government web resources and services.